Time;durP1;ratioP1;P1;durP2;ratioP2;P2;SDS_P1;SDS_P2;PMS_P1;PMS_P2;Temp;Humidity;BMP_temperature;BMP_pressure;BME280_temperature;BME280_humidity;BME280_pressure;Samples;Min_cycle;Max_cycle;Signal;HPM_P1;HPM_P2
2021/12/29 00:01:29;;;;;;;1.17;0.50;;;7.00;99.90;;;;;;5034941;28;20469;-74
2021/12/29 00:03:54;;;;;;;0.45;0.45;;;7.10;99.90;;;;;;5034836;28;20029;-74
2021/12/29 00:06:20;;;;;;;2.13;1.08;;;7.10;99.90;;;;;;5034790;28;20033;-74
2021/12/29 00:08:46;;;;;;;9.68;2.53;;;7.00;99.90;;;;;;5034648;28;20485;-74
2021/12/29 00:11:13;;;;;;;1.10;0.50;;;7.10;99.90;;;;;;5034740;28;20030;-74
2021/12/29 00:13:38;;;;;;;1.65;0.40;;;7.00;99.90;;;;;;5033391;28;20496;-74
2021/12/29 00:16:05;;;;;;;3.88;1.70;;;7.00;99.90;;;;;;5034531;28;20046;-73
2021/12/29 00:18:33;;;;;;;0.22;0.22;;;7.00;99.90;;;;;;5034541;28;20427;-73
2021/12/29 00:21:03;;;;;;;1.05;0.55;;;7.00;99.90;;;;;;5033210;28;20022;-74
2021/12/29 00:23:28;;;;;;;5.63;0.70;;;7.10;99.90;;;;;;5034480;28;20029;-73
2021/12/29 00:25:54;;;;;;;22.65;1.50;;;7.00;99.90;;;;;;5033271;28;20038;-73
2021/12/29 00:28:21;;;;;;;1.17;0.50;;;7.10;99.90;;;;;;5034450;28;20036;-74
2021/12/29 00:30:46;;;;;;;0.13;0.13;;;7.10;99.90;;;;;;5034349;28;20120;-73
2021/12/29 00:33:12;;;;;;;4.70;1.05;;;7.10;99.90;;;;;;5033065;28;20164;-74
2021/12/29 00:35:41;;;;;;;0.28;0.28;;;7.10;99.90;;;;;;5034267;28;20052;-74
2021/12/29 00:38:09;;;;;;;0.20;0.20;;;7.10;99.90;;;;;;5034207;28;20026;-73
2021/12/29 00:40:36;;;;;;;0.20;0.20;;;7.10;99.90;;;;;;5032872;28;20117;-74
2021/12/29 00:43:03;;;;;;;6.22;2.05;;;7.10;99.90;;;;;;5032941;28;20026;-74
2021/12/29 00:45:32;;;;;;;3.20;0.43;;;7.20;99.90;;;;;;5031614;28;20025;-74
2021/12/29 00:47:58;;;;;;;7.13;0.82;;;7.20;99.90;;;;;;5034000;28;20116;-74
2021/12/29 00:50:25;;;;;;;4.00;1.60;;;7.20;99.90;;;;;;5033872;28;20056;-74
2021/12/29 00:52:51;;;;;;;2.30;0.85;;;7.20;99.90;;;;;;5033911;28;20033;-74
2021/12/29 00:55:17;;;;;;;0.20;0.20;;;7.20;99.90;;;;;;5033859;28;20528;-74
2021/12/29 00:57:45;;;;;;;1.65;0.75;;;7.20;99.90;;;;;;5032626;28;20030;-74
2021/12/29 01:00:14;;;;;;;4.70;0.70;;;7.20;99.90;;;;;;5032376;28;20022;-74
2021/12/29 01:02:40;;;;;;;0.20;0.20;;;7.30;99.90;;;;;;5034065;28;20076;-74
2021/12/29 01:05:08;;;;;;;4.70;2.33;;;7.20;99.90;;;;;;5032350;28;20029;-74
2021/12/29 01:07:34;;;;;;;4.20;0.77;;;7.20;99.90;;;;;;5032365;28;20421;-74
2021/12/29 01:10:00;;;;;;;1.75;0.43;;;7.20;99.90;;;;;;5032286;28;20056;-74
2021/12/29 01:12:27;;;;;;;2.20;0.40;;;7.20;99.90;;;;;;5015713;28;20438;-74
2021/12/29 01:14:55;;;;;;;0.30;0.30;;;7.20;99.90;;;;;;5033540;28;20124;-74
2021/12/29 01:17:23;;;;;;;1.77;0.85;;;7.20;99.90;;;;;;5015637;28;20026;-74
2021/12/29 01:19:54;;;;;;;4.57;0.60;;;7.20;99.90;;;;;;5033260;28;20025;-74
2021/12/29 01:22:21;;;;;;;2.72;1.95;;;7.20;99.90;;;;;;5033454;28;20025;-74
2021/12/29 01:24:47;;;;;;;0.85;0.65;;;7.10;99.90;;;;;;5033338;28;20025;-74
2021/12/29 01:27:15;;;;;;;0.85;0.40;;;7.10;99.90;;;;;;5033289;28;20032;-74
2021/12/29 01:29:41;;;;;;;0.32;0.32;;;7.10;99.90;;;;;;5033079;28;20041;-74
2021/12/29 01:32:07;;;;;;;2.63;0.38;;;7.10;99.90;;;;;;5033137;28;20044;-73
2021/12/29 01:34:33;;;;;;;11.65;2.33;;;7.10;99.90;;;;;;5033126;28;20022;-74
2021/12/29 01:37:00;;;;;;;10.02;1.35;;;7.10;99.90;;;;;;5033095;28;20172;-74
2021/12/29 01:39:26;;;;;;;10.75;1.85;;;7.10;99.90;;;;;;5031703;28;20028;-73
2021/12/29 01:41:54;;;;;;;2.17;1.70;;;7.10;99.90;;;;;;5032924;28;20473;-73
2021/12/29 01:44:23;;;;;;;0.90;0.30;;;7.20;99.90;;;;;;5032988;28;20040;-74
2021/12/29 01:46:51;;;;;;;0.50;0.50;;;7.20;99.90;;;;;;5032766;28;20045;-73
2021/12/29 01:49:18;;;;;;;0.30;0.30;;;7.20;99.90;;;;;;5032860;28;20025;-73
2021/12/29 01:52:00;;;;;;;7.55;0.95;;;7.30;99.90;;;;;;5031645;28;20021;-74
2021/12/29 01:54:27;;;;;;;2.45;0.95;;;7.30;99.90;;;;;;5032886;28;20034;-74
2021/12/29 01:56:58;;;;;;;7.28;0.90;;;7.30;99.90;;;;;;5031171;28;20047;-74
2021/12/29 01:59:26;;;;;;;1.45;0.73;;;7.20;99.90;;;;;;5032667;28;20389;-74
2021/12/29 02:01:52;;;;;;;0.20;0.20;;;7.30;99.90;;;;;;5032649;28;20029;-74
2021/12/29 02:04:19;;;;;;;1.88;0.73;;;7.30;99.90;;;;;;5032604;28;20029;-73
2021/12/29 02:06:46;;;;;;;0.10;0.10;;;7.30;99.90;;;;;;5032612;28;20037;-74
2021/12/29 02:09:12;;;;;;;0.32;0.32;;;7.30;99.90;;;;;;5014753;28;20055;-73
2021/12/29 02:11:41;;;;;;;3.80;0.77;;;7.30;99.90;;;;;;5032520;28;20017;-74
2021/12/29 02:14:07;;;;;;;0.43;0.40;;;7.40;99.90;;;;;;5031147;28;20032;-74
2021/12/29 02:16:34;;;;;;;1.70;0.63;;;7.40;99.90;;;;;;5031143;28;20025;-74
2021/12/29 02:19:03;;;;;;;0.70;0.63;;;7.40;99.90;;;;;;5031027;28;20118;-73
2021/12/29 02:21:30;;;;;;;0.25;0.25;;;7.30;99.90;;;;;;5031246;28;20025;-74
2021/12/29 02:26:39;;;;;;;1.85;0.40;;;7.30;99.90;;;;;;5031049;28;20084;-74
2021/12/29 02:29:15;;;;;;;2.20;0.77;;;7.30;99.90;;;;;;5032190;28;20083;-74
2021/12/29 02:31:41;;;;;;;0.52;0.40;;;7.40;99.90;;;;;;5032247;28;20053;-73
2021/12/29 02:34:10;;;;;;;0.20;0.20;;;7.40;99.90;;;;;;5032082;28;20512;-74
2021/12/29 02:36:42;;;;;;;3.08;1.15;;;7.40;99.90;;;;;;5032137;28;20381;-73
2021/12/29 02:39:10;;;;;;;3.10;1.40;;;7.40;99.90;;;;;;5032059;28;20056;-74
2021/12/29 02:41:37;;;;;;;3.92;0.95;;;7.40;99.90;;;;;;5032124;28;20105;-74
2021/12/29 02:44:04;;;;;;;1.65;0.85;;;7.40;99.90;;;;;;5032059;28;20025;-74
2021/12/29 02:46:32;;;;;;;16.65;2.80;;;7.40;99.90;;;;;;5031904;28;20025;-74
2021/12/29 02:48:59;;;;;;;2.83;0.70;;;7.40;99.90;;;;;;5031930;28;20032;-74
2021/12/29 02:51:27;;;;;;;2.38;0.63;;;7.40;99.90;;;;;;5032055;28;20025;-73
2021/12/29 02:53:53;;;;;;;0.55;0.55;;;7.50;99.90;;;;;;5030667;28;20053;-73
2021/12/29 02:56:19;;;;;;;17.50;2.10;;;7.40;99.90;;;;;;5031942;28;20100;-73
2021/12/29 02:58:44;;;;;;;0.32;0.32;;;7.50;99.90;;;;;;5031858;28;20049;-74
2021/12/29 03:01:14;;;;;;;0.98;0.60;;;7.50;99.90;;;;;;5030707;28;20355;-74
2021/12/29 03:03:40;;;;;;;0.20;0.20;;;7.50;99.90;;;;;;5031833;28;20029;-74
2021/12/29 03:06:07;;;;;;;0.20;0.20;;;7.50;99.90;;;;;;5030568;28;20512;-74
2021/12/29 03:08:33;;;;;;;0.30;0.25;;;7.50;99.90;;;;;;5032756;28;20100;-74
2021/12/29 03:10:59;;;;;;;0.20;0.20;;;7.50;99.90;;;;;;5035878;28;20029;-73
2021/12/29 03:13:28;;;;;;;2.17;0.52;;;7.50;99.90;;;;;;5035764;28;20497;-73
2021/12/29 03:15:56;;;;;;;2.28;0.30;;;7.50;99.90;;;;;;5035739;28;20022;-73
2021/12/29 03:18:22;;;;;;;2.50;0.68;;;7.50;99.90;;;;;;5035631;28;20045;-73
2021/12/29 03:20:49;;;;;;;7.22;1.50;;;7.50;99.90;;;;;;5034522;28;20084;-73
2021/12/29 03:23:15;;;;;;;5.13;1.05;;;7.50;99.90;;;;;;5035707;28;20485;-74
2021/12/29 03:25:41;;;;;;;3.30;0.55;;;7.40;99.90;;;;;;5034484;28;20034;-74
2021/12/29 03:28:08;;;;;;;0.20;0.20;;;7.40;99.90;;;;;;5017792;28;20083;-73
2021/12/29 03:30:43;;;;;;;2.75;0.60;;;7.40;99.90;;;;;;5035443;28;20087;-74
2021/12/29 03:33:09;;;;;;;0.40;0.25;;;7.30;99.90;;;;;;5034106;28;20448;-74
2021/12/29 03:35:39;;;;;;;0.32;0.32;;;7.30;99.90;;;;;;5017693;28;20033;-74
2021/12/29 03:38:08;;;;;;;0.30;0.30;;;7.20;99.90;;;;;;5035483;28;20021;-74
2021/12/29 03:40:35;;;;;;;2.20;0.52;;;7.20;99.90;;;;;;5035402;28;20087;-73
2021/12/29 03:43:03;;;;;;;10.65;0.90;;;7.20;99.90;;;;;;5035278;28;20021;-74
2021/12/29 03:45:28;;;;;;;0.68;0.60;;;7.10;99.90;;;;;;5035243;28;20522;-74
2021/12/29 03:47:54;;;;;;;2.30;0.50;;;7.00;99.90;;;;;;5039584;23;20132;-75
2021/12/29 03:50:20;;;;;;;0.20;0.20;;;6.90;99.90;;;;;;4981708;28;20033;-75
2021/12/29 03:52:46;;;;;;;0.35;0.30;;;6.90;99.90;;;;;;4994472;28;20034;-75
2021/12/29 03:55:12;;;;;;;5.03;0.73;;;6.90;99.90;;;;;;4995674;28;20273;-74
2021/12/29 03:57:39;;;;;;;0.85;0.30;;;6.90;99.90;;;;;;4994355;28;20019;-74
2021/12/29 04:00:08;;;;;;;6.65;0.88;;;6.90;99.90;;;;;;4995521;28;20018;-74
2021/12/29 04:02:34;;;;;;;0.93;0.30;;;6.80;99.90;;;;;;4995595;28;20032;-74
2021/12/29 04:05:01;;;;;;;0.95;0.95;;;6.80;99.90;;;;;;4995451;28;20101;-74
2021/12/29 04:07:26;;;;;;;0.63;0.30;;;6.80;99.90;;;;;;5010483;28;20524;-74
2021/12/29 04:09:52;;;;;;;1.65;0.45;;;6.80;99.90;;;;;;4995310;28;20054;-74
2021/12/29 04:12:18;;;;;;;9.63;0.60;;;6.80;99.90;;;;;;4995348;28;20512;-74
2021/12/29 04:14:44;;;;;;;0.13;0.13;;;6.70;99.90;;;;;;4995364;28;20018;-74
2021/12/29 04:17:12;;;;;;;2.83;0.30;;;6.70;99.90;;;;;;4993911;28;20472;-74
2021/12/29 04:20:54;;;;;;;0.10;0.10;;;6.70;99.90;;;;;;4977554;28;20564;-74
2021/12/29 04:22:31;;;;;;;0.20;0.20;;;6.70;99.90;;;;;;4995080;28;20390;-74
2021/12/29 04:24:57;;;;;;;0.20;0.20;;;6.70;99.90;;;;;;4995174;28;20023;-74
2021/12/29 04:27:25;;;;;;;0.45;0.45;;;6.70;99.90;;;;;;4995109;28;20029;-74
2021/12/29 04:29:52;;;;;;;0.15;0.15;;;6.70;99.90;;;;;;4993963;28;20034;-74
2021/12/29 04:32:18;;;;;;;0.68;0.60;;;6.70;99.90;;;;;;4995190;28;20026;-74
2021/12/29 04:34:45;;;;;;;0.20;0.20;;;6.70;99.90;;;;;;4993794;28;20023;-74
2021/12/29 04:37:11;;;;;;;1.25;0.50;;;6.70;99.90;;;;;;4994722;28;20367;-74
2021/12/29 04:39:37;;;;;;;4.57;0.95;;;6.70;99.90;;;;;;4993593;28;20030;-74
2021/12/29 04:42:03;;;;;;;3.47;1.05;;;6.70;99.90;;;;;;4994835;28;20029;-74
2021/12/29 04:44:28;;;;;;;0.10;0.10;;;6.70;99.90;;;;;;4994457;28;20018;-74
2021/12/29 04:46:57;;;;;;;0.20;0.20;;;6.70;99.90;;;;;;4994467;28;20030;-74
2021/12/29 04:49:26;;;;;;;0.30;0.30;;;6.80;99.90;;;;;;4994743;28;20030;-74
2021/12/29 04:52:03;;;;;;;3.50;0.75;;;6.80;99.90;;;;;;4993478;28;20457;-74
2021/12/29 04:54:30;;;;;;;0.50;0.50;;;6.80;99.90;;;;;;4993479;28;20033;-74
2021/12/29 04:56:56;;;;;;;2.40;0.63;;;6.80;99.90;;;;;;4993032;28;20422;-74
2021/12/29 04:59:26;;;;;;;1.95;0.30;;;6.70;99.90;;;;;;4993172;28;20023;-74
2021/12/29 05:01:52;;;;;;;0.32;0.32;;;6.70;99.90;;;;;;4994539;28;20097;-74
2021/12/29 05:04:29;;;;;;;0.38;0.38;;;6.70;99.90;;;;;;4994529;28;20114;-74
2021/12/29 05:09:40;;;;;;;0.82;0.82;;;6.80;99.90;;;;;;4993009;28;20049;-74
2021/12/29 05:12:06;;;;;;;0.30;0.30;;;6.80;99.90;;;;;;4994190;28;20030;-74
2021/12/29 05:14:32;;;;;;;0.20;0.20;;;6.80;99.90;;;;;;4994249;28;20026;-74
2021/12/29 05:16:58;;;;;;;0.30;0.30;;;6.80;99.90;;;;;;4994073;28;20049;-74
2021/12/29 05:19:24;;;;;;;2.75;0.55;;;6.90;99.90;;;;;;4992829;28;20034;-74
2021/12/29 05:21:50;;;;;;;1.55;0.85;;;6.80;99.90;;;;;;4992790;28;20077;-74
2021/12/29 05:24:16;;;;;;;0.20;0.20;;;6.80;99.90;;;;;;5009230;28;20062;-74
2021/12/29 05:26:42;;;;;;;0.20;0.20;;;6.80;99.90;;;;;;4976433;28;20036;-74
2021/12/29 05:29:08;;;;;;;0.20;0.20;;;6.80;99.90;;;;;;4993922;28;20026;-74
2021/12/29 05:31:34;;;;;;;0.20;0.20;;;6.90;99.90;;;;;;4993412;28;20022;-74
2021/12/29 05:34:00;;;;;;;0.45;0.30;;;6.90;99.90;;;;;;4993852;28;20027;-74
2021/12/29 05:36:26;;;;;;;1.77;0.38;;;6.90;99.90;;;;;;4993626;28;20076;-74
2021/12/29 05:38:56;;;;;;;5.07;0.45;;;7.00;99.90;;;;;;4993754;28;20026;-74
2021/12/29 05:41:23;;;;;;;2.40;0.65;;;7.00;99.90;;;;;;4993908;28;20022;-74
2021/12/29 05:43:49;;;;;;;0.32;0.32;;;6.90;99.90;;;;;;4993722;28;20026;-74
2021/12/29 05:46:15;;;;;;;1.42;1.20;;;6.90;99.90;;;;;;4993470;28;20022;-74
2021/12/29 05:48:41;;;;;;;0.50;0.50;;;7.00;99.90;;;;;;4993452;28;20442;-74
2021/12/29 05:51:08;;;;;;;0.50;0.50;;;6.90;99.90;;;;;;4993616;28;20030;-74
2021/12/29 05:53:33;;;;;;;5.35;0.90;;;6.90;99.90;;;;;;4993539;28;20018;-74
2021/12/29 05:55:59;;;;;;;0.20;0.20;;;6.90;99.90;;;;;;4992102;28;20386;-75
2021/12/29 05:58:25;;;;;;;0.28;0.28;;;7.00;99.90;;;;;;4993301;28;20029;-74
2021/12/29 06:00:51;;;;;;;0.20;0.20;;;6.90;99.90;;;;;;4992252;28;20032;-75
2021/12/29 06:03:19;;;;;;;1.55;0.50;;;6.90;99.90;;;;;;4993218;28;20027;-74
2021/12/29 06:05:44;;;;;;;0.20;0.20;;;6.90;99.90;;;;;;5008373;28;20553;-74
2021/12/29 06:08:10;;;;;;;0.30;0.30;;;6.90;99.90;;;;;;4993285;28;20097;-74
2021/12/29 06:10:37;;;;;;;0.68;0.68;;;7.00;99.90;;;;;;4993294;28;20402;-74
2021/12/29 06:13:02;;;;;;;2.05;1.63;;;7.00;99.90;;;;;;4991954;28;20389;-74
2021/12/29 06:15:28;;;;;;;0.20;0.20;;;7.10;99.90;;;;;;4993215;28;20105;-74
2021/12/29 06:17:55;;;;;;;1.27;0.60;;;7.10;99.90;;;;;;4993033;28;20025;-74
2021/12/29 06:20:21;;;;;;;0.35;0.35;;;7.00;99.90;;;;;;4992921;28;20033;-74
2021/12/29 06:22:47;;;;;;;0.20;0.20;;;7.00;99.90;;;;;;4991860;28;20026;-74
2021/12/29 06:25:16;;;;;;;0.30;0.30;;;7.10;99.90;;;;;;4993239;28;20394;-74
2021/12/29 06:27:42;;;;;;;7.88;0.57;;;7.10;99.90;;;;;;4991683;28;20114;-74
2021/12/29 06:30:10;;;;;;;0.30;0.30;;;7.00;99.90;;;;;;4992886;28;20033;-74
2021/12/29 06:32:37;;;;;;;0.30;0.30;;;7.10;99.90;;;;;;4991535;28;20037;-74
2021/12/29 06:35:04;;;;;;;0.20;0.20;;;7.10;99.90;;;;;;4991605;28;20022;-71
2021/12/29 06:37:30;;;;;;;0.95;0.85;;;7.10;99.90;;;;;;4991594;28;20026;-71
2021/12/29 06:39:56;;;;;;;0.10;0.10;;;7.00;99.90;;;;;;4992821;28;20474;-72
2021/12/29 06:42:22;;;;;;;2.22;1.27;;;7.10;99.90;;;;;;4992397;28;20057;-71
2021/12/29 06:44:48;;;;;;;0.20;0.20;;;7.10;99.90;;;;;;4991036;28;20027;-71
2021/12/29 06:47:15;;;;;;;0.20;0.20;;;7.20;99.90;;;;;;4992559;28;20410;-71
2021/12/29 06:49:41;;;;;;;1.63;0.50;;;7.20;99.90;;;;;;4991504;28;20101;-71
2021/12/29 06:52:07;;;;;;;5.78;1.25;;;7.20;99.90;;;;;;4992807;28;20023;-71
2021/12/29 06:54:34;;;;;;;0.30;0.30;;;7.10;99.90;;;;;;4992724;28;20627;-71
2021/12/29 06:57:00;;;;;;;0.20;0.20;;;7.10;99.90;;;;;;4991446;28;20158;-71
2021/12/29 06:59:26;;;;;;;0.20;0.20;;;7.20;99.90;;;;;;4991414;28;20037;-71
2021/12/29 07:01:52;;;;;;;0.20;0.20;;;7.20;99.90;;;;;;4992653;28;20470;-71
2021/12/29 07:04:18;;;;;;;0.22;0.22;;;7.30;99.90;;;;;;4992600;28;20077;-71
2021/12/29 07:06:44;;;;;;;0.20;0.20;;;7.20;99.90;;;;;;4991242;28;20041;-73
2021/12/29 07:09:10;;;;;;;0.20;0.20;;;7.20;99.90;;;;;;4991081;28;20035;-72
2021/12/29 07:11:37;;;;;;;0.20;0.20;;;7.20;99.90;;;;;;4991268;28;20038;-72
2021/12/29 07:14:05;;;;;;;0.20;0.20;;;7.20;99.90;;;;;;4992408;28;20030;-72
2021/12/29 07:16:31;;;;;;;0.20;0.20;;;7.30;99.90;;;;;;4991569;28;20027;-73
2021/12/29 07:18:58;;;;;;;1.05;0.30;;;7.30;99.90;;;;;;4991218;28;20026;-72
2021/12/29 07:21:24;;;;;;;0.20;0.20;;;7.20;99.90;;;;;;4992430;28;20438;-72
2021/12/29 07:23:51;;;;;;;0.20;0.20;;;7.20;99.90;;;;;;4992471;28;20030;-72
2021/12/29 07:26:17;;;;;;;0.20;0.20;;;7.20;99.90;;;;;;4991300;28;20573;-72
2021/12/29 07:28:43;;;;;;;4.47;0.55;;;7.30;99.90;;;;;;4992479;28;20030;-72
2021/12/29 07:31:09;;;;;;;2.08;0.65;;;7.20;99.90;;;;;;4991376;28;20030;-72
2021/12/29 07:33:35;;;;;;;0.20;0.20;;;7.30;99.90;;;;;;4992267;28;20030;-72
2021/12/29 07:36:01;;;;;;;0.68;0.30;;;7.20;99.90;;;;;;4992296;28;20616;-71
2021/12/29 07:38:27;;;;;;;0.20;0.20;;;7.30;99.90;;;;;;4992259;28;20050;-71
2021/12/29 07:40:52;;;;;;;0.30;0.30;;;7.30;99.90;;;;;;4992250;28;20041;-73
2021/12/29 07:43:19;;;;;;;0.40;0.40;;;7.40;99.90;;;;;;5007383;28;20513;-72
2021/12/29 07:45:45;;;;;;;0.20;0.20;;;7.40;99.90;;;;;;4992273;28;20023;-72
2021/12/29 07:48:11;;;;;;;0.20;0.20;;;7.40;99.90;;;;;;5007271;28;20038;-72
2021/12/29 07:50:37;;;;;;;0.40;0.40;;;7.40;99.90;;;;;;4992131;28;20498;-72
2021/12/29 07:53:05;;;;;;;0.85;0.55;;;7.40;99.90;;;;;;4990871;28;20022;-72
2021/12/29 07:55:31;;;;;;;0.20;0.20;;;7.40;99.90;;;;;;4994329;28;20033;-72
2021/12/29 07:57:57;;;;;;;0.50;0.43;;;7.40;99.90;;;;;;4995758;28;20027;-72
2021/12/29 08:00:23;;;;;;;1.55;0.55;;;7.40;99.90;;;;;;4994343;28;20034;-72
2021/12/29 08:02:51;;;;;;;3.20;0.30;;;7.40;99.90;;;;;;4995646;28;20037;-73
2021/12/29 08:05:17;;;;;;;0.20;0.20;;;7.40;99.90;;;;;;4995466;28;20061;-72
2021/12/29 08:07:43;;;;;;;1.17;0.73;;;7.40;99.90;;;;;;4995581;28;20026;-72
2021/12/29 08:10:09;;;;;;;0.20;0.20;;;7.40;99.90;;;;;;4995434;28;20474;-73
2021/12/29 08:12:35;;;;;;;0.10;0.10;;;7.50;99.90;;;;;;4995349;28;20081;-73
2021/12/29 08:15:01;;;;;;;0.10;0.10;;;7.50;99.90;;;;;;5010624;28;20026;-73
2021/12/29 08:17:31;;;;;;;0.20;0.20;;;7.50;99.90;;;;;;4995358;28;20072;-72
2021/12/29 08:20:01;;;;;;;1.00;0.70;;;7.60;99.90;;;;;;4995312;28;20105;-73
2021/12/29 08:22:27;;;;;;;0.10;0.10;;;7.70;99.90;;;;;;4993932;28;20029;-72
2021/12/29 08:24:52;;;;;;;0.20;0.20;;;7.70;99.90;;;;;;4995225;28;20026;-72
2021/12/29 08:27:18;;;;;;;0.20;0.20;;;7.60;99.90;;;;;;4993952;28;20032;-72
2021/12/29 08:29:44;;;;;;;27.10;1.35;;;7.60;99.90;;;;;;4995131;28;20022;-72
2021/12/29 08:32:10;;;;;;;0.20;0.20;;;7.70;99.90;;;;;;4995091;28;20034;-71
2021/12/29 08:34:36;;;;;;;0.20;0.20;;;7.70;99.90;;;;;;4994988;28;20085;-72
2021/12/29 08:37:01;;;;;;;0.60;0.60;;;7.70;99.90;;;;;;4994941;28;20019;-73
2021/12/29 08:39:27;;;;;;;0.47;0.47;;;7.70;99.90;;;;;;4994883;28;20022;-72
2021/12/29 08:41:53;;;;;;;0.35;0.28;;;7.70;99.90;;;;;;4994972;28;20023;-72
2021/12/29 08:44:19;;;;;;;0.60;0.60;;;7.70;99.90;;;;;;4994880;28;20034;-72
2021/12/29 08:46:47;;;;;;;0.82;0.45;;;7.70;99.90;;;;;;4993565;28;20070;-72
2021/12/29 08:49:13;;;;;;;0.75;0.30;;;7.70;99.90;;;;;;4994697;28;20513;-72
2021/12/29 08:51:39;;;;;;;1.88;0.95;;;7.70;99.90;;;;;;4994652;28;20130;-72
2021/12/29 08:54:05;;;;;;;1.92;0.17;;;7.70;99.90;;;;;;4994642;28;20546;-72
2021/12/29 08:56:31;;;;;;;0.47;0.47;;;7.70;99.90;;;;;;4994662;28;20085;-72
2021/12/29 08:58:57;;;;;;;1.38;0.50;;;7.80;99.90;;;;;;4993093;28;20513;-72
2021/12/29 09:01:24;;;;;;;3.58;0.65;;;7.80;99.90;;;;;;4993427;28;20105;-72
2021/12/29 09:03:51;;;;;;;2.85;0.60;;;7.80;99.90;;;;;;4994425;28;20406;-72
2021/12/29 09:06:17;;;;;;;0.60;0.30;;;7.80;99.90;;;;;;4993462;28;20475;-72
2021/12/29 09:08:44;;;;;;;0.20;0.20;;;7.80;99.90;;;;;;4994375;28;20037;-72
2021/12/29 09:11:10;;;;;;;0.85;0.82;;;7.90;99.90;;;;;;4994284;28;20130;-73
2021/12/29 09:13:36;;;;;;;0.20;0.20;;;7.90;99.90;;;;;;4992917;28;20034;-72
2021/12/29 09:16:03;;;;;;;1.23;0.45;;;7.90;99.90;;;;;;4994205;28;20041;-73
2021/12/29 09:18:31;;;;;;;0.20;0.20;;;7.90;99.90;;;;;;4992898;28;20049;-72
2021/12/29 09:21:05;;;;;;;0.20;0.20;;;8.00;99.90;;;;;;4994077;28;20109;-72
2021/12/29 09:23:32;;;;;;;12.52;0.88;;;7.90;99.90;;;;;;4994110;28;20030;-72
2021/12/29 09:25:58;;;;;;;0.13;0.13;;;7.90;99.90;;;;;;4992871;28;20033;-72
2021/12/29 09:28:24;;;;;;;4.18;1.40;;;8.00;99.90;;;;;;4993898;28;20026;-72
2021/12/29 09:30:50;;;;;;;13.70;1.10;;;8.00;99.90;;;;;;4994286;28;20105;-72
2021/12/29 09:33:19;;;;;;;0.30;0.30;;;8.00;99.90;;;;;;4993964;28;20105;-72
2021/12/29 09:35:49;;;;;;;3.20;0.40;;;8.00;99.90;;;;;;4993741;28;20065;-73
2021/12/29 09:38:17;;;;;;;0.20;0.20;;;8.10;99.90;;;;;;5007388;28;20023;-72
2021/12/29 09:40:44;;;;;;;1.20;0.82;;;8.20;99.90;;;;;;4974201;28;20022;-72
2021/12/29 09:43:10;;;;;;;0.20;0.20;;;8.20;99.90;;;;;;4993795;28;20109;-72
2021/12/29 09:45:38;;;;;;;0.98;0.65;;;8.30;99.90;;;;;;4992051;28;20038;-72
2021/12/29 09:48:04;;;;;;;15.27;1.17;;;8.30;99.90;;;;;;4993429;28;20030;-72
2021/12/29 09:50:30;;;;;;;2.58;0.65;;;8.30;99.90;;;;;;4993273;28;20041;-72
2021/12/29 09:53:25;;;;;;;7.53;0.88;;;8.30;99.90;;;;;;5016067;23;20092;-91
2021/12/29 09:56:10;;;;;;;1.27;0.40;;;8.40;99.90;;;;;;4971776;28;20495;-91
2021/12/29 09:58:41;;;;;;;3.20;0.50;;;8.50;99.90;;;;;;4977445;28;20407;-91
2021/12/29 10:01:25;;;;;;;1.60;0.40;;;8.70;99.90;;;;;;4977754;28;20033;-91
2021/12/29 10:04:13;;;;;;;6.38;1.35;;;9.00;99.90;;;;;;4975681;28;20133;-91
2021/12/29 10:06:45;;;;;;;0.20;0.20;;;9.60;99.90;;;;;;4963376;28;20557;-91
2021/12/29 10:09:17;;;;;;;3.00;1.02;;;9.60;99.90;;;;;;4958974;28;20066;-92
2021/12/29 10:15:18;;;;;;;0.10;0.10;;;10.10;99.90;;;;;;4922661;29;20072;-95
2021/12/29 10:18:12;;;;;;;2.63;0.30;;;11.00;99.90;;;;;;4927913;29;20027;-94
2021/12/29 10:21:17;;;;;;;0.13;0.13;;;11.60;99.90;;;;;;4933854;29;20027;-93
2021/12/29 10:24:29;;;;;;;;;;;;;;;;;;;;;
2021/12/29 10:27:28;;;;;;;1.92;0.43;;;12.20;96.50;;;;;;4990265;28;20037;-95
2021/12/29 10:34:00;;;;;;;0.40;0.38;;;12.90;91.30;;;;;;4984594;28;20347;-92
2021/12/29 10:36:50;;;;;;;0.20;0.20;;;12.50;91.70;;;;;;4984834;28;20038;-92
2021/12/29 10:39:55;;;;;;;0.10;0.10;;;12.50;91.40;;;;;;4985362;28;20118;-92
2021/12/29 10:43:04;;;;;;;0.15;0.15;;;12.40;91.80;;;;;;4986116;28;20482;-91
2021/12/29 10:49:09;;;;;;;0.88;0.85;;;11.60;92.60;;;;;;4943065;29;20109;-92
2021/12/29 10:51:47;;;;;;;0.20;0.20;;;11.50;92.80;;;;;;4926489;29;20027;-91
2021/12/29 10:54:32;;;;;;;0.20;0.20;;;11.60;93.20;;;;;;4942896;29;20043;-92
2021/12/29 10:57:05;;;;;;;7.95;0.70;;;11.80;93.20;;;;;;4930347;29;20024;-92
2021/12/29 10:59:35;;;;;;;1.85;0.60;;;11.60;92.50;;;;;;4944296;28;20038;-93
2021/12/29 11:09:52;;;;;;;1.75;1.10;;;12.10;92.00;;;;;;4927515;29;20059;-91
2021/12/29 11:12:23;;;;;;;0.10;0.10;;;11.80;92.20;;;;;;4998439;23;20398;-78
2021/12/29 11:14:53;;;;;;;0.65;0.65;;;11.70;93.10;;;;;;5012465;28;20152;-77
2021/12/29 11:17:24;;;;;;;25.98;3.45;;;11.30;93.00;;;;;;5012031;28;20044;-77
2021/12/29 11:19:56;;;;;;;0.60;0.52;;;10.80;93.90;;;;;;5011012;28;20096;-78
2021/12/29 11:22:27;;;;;;;0.10;0.10;;;10.90;94.40;;;;;;5012367;28;20028;-77
2021/12/29 11:25:01;;;;;;;0.20;0.20;;;10.70;94.80;;;;;;5012235;28;20478;-78
2021/12/29 11:27:28;;;;;;;0.20;0.20;;;10.80;95.10;;;;;;5010746;28;20407;-78
2021/12/29 11:30:00;;;;;;;0.10;0.10;;;10.80;95.40;;;;;;5012598;28;20474;-78
2021/12/29 11:32:35;;;;;;;0.20;0.20;;;11.10;94.80;;;;;;5016521;28;20028;-77
2021/12/29 11:35:17;;;;;;;0.40;0.40;;;11.30;95.70;;;;;;5014692;28;20084;-77
2021/12/29 11:37:50;;;;;;;0.28;0.28;;;11.40;94.30;;;;;;5015818;28;20048;-77
2021/12/29 11:40:23;;;;;;;7.38;1.05;;;10.80;94.80;;;;;;5015459;28;20029;-77
2021/12/29 11:42:50;;;;;;;3.83;0.45;;;10.80;95.20;;;;;;5015631;28;20397;-76
2021/12/29 11:45:16;;;;;;;0.30;0.30;;;10.40;96.30;;;;;;5014297;28;20097;-77
2021/12/29 11:47:43;;;;;;;0.20;0.20;;;10.20;96.70;;;;;;5015382;28;20076;-77
2021/12/29 11:50:12;;;;;;;0.40;0.40;;;10.30;97.50;;;;;;5015393;28;20038;-78
2021/12/29 11:52:58;;;;;;;0.20;0.20;;;10.20;97.10;;;;;;5015267;28;20080;-78
2021/12/29 11:55:33;;;;;;;5.88;1.17;;;10.10;97.70;;;;;;5015344;28;20385;-77
2021/12/29 11:58:23;;;;;;;1.13;0.45;;;9.90;98.30;;;;;;5014032;28;20026;-77
2021/12/29 12:01:06;;;;;;;2.05;0.73;;;9.90;98.90;;;;;;5014204;28;20516;-77
2021/12/29 12:03:51;;;;;;;0.20;0.20;;;9.70;98.90;;;;;;5014136;28;20034;-77
2021/12/29 12:06:39;;;;;;;0.10;0.10;;;9.70;99.60;;;;;;5013777;28;20061;-78
2021/12/29 12:09:22;;;;;;;1.17;0.25;;;9.70;99.80;;;;;;5015325;28;20036;-77
2021/12/29 12:11:48;;;;;;;0.20;0.20;;;9.70;99.90;;;;;;5013720;28;20128;-77
2021/12/29 12:14:43;;;;;;;0.20;0.20;;;9.50;99.90;;;;;;5014891;28;20472;-77
2021/12/29 12:17:14;;;;;;;0.10;0.10;;;9.40;99.90;;;;;;5014650;28;20497;-77
2021/12/29 12:19:41;;;;;;;3.72;0.25;;;9.70;99.90;;;;;;5013516;28;20076;-77
2021/12/29 12:22:12;;;;;;;0.20;0.20;;;9.60;99.90;;;;;;5013653;28;20030;-77
2021/12/29 12:24:41;;;;;;;1.45;0.57;;;9.50;99.90;;;;;;4997231;28;20448;-78
2021/12/29 12:27:15;;;;;;;0.10;0.10;;;9.50;99.90;;;;;;5014690;28;20072;-77
2021/12/29 12:29:45;;;;;;;0.10;0.10;;;9.40;99.90;;;;;;5014983;28;20032;-77
2021/12/29 12:32:17;;;;;;;0.10;0.10;;;9.40;99.90;;;;;;5014578;28;20029;-77
2021/12/29 12:35:05;;;;;;;0.20;0.20;;;9.50;99.90;;;;;;5013085;28;20117;-77
2021/12/29 12:37:35;;;;;;;0.20;0.20;;;9.60;99.90;;;;;;5014491;28;20052;-77
2021/12/29 12:40:09;;;;;;;1.48;0.50;;;9.60;99.90;;;;;;5013275;28;20022;-77
2021/12/29 12:42:35;;;;;;;0.20;0.20;;;9.60;99.90;;;;;;5013387;28;20030;-76
2021/12/29 12:45:03;;;;;;;0.85;0.70;;;9.50;99.90;;;;;;5013312;28;20045;-78
2021/12/29 12:47:31;;;;;;;2.22;0.47;;;9.50;99.90;;;;;;5012847;28;20025;-78
2021/12/29 12:49:59;;;;;;;0.20;0.20;;;9.50;99.90;;;;;;5014137;28;20045;-78
2021/12/29 12:52:27;;;;;;;0.20;0.20;;;9.40;99.90;;;;;;5014292;28;20072;-78
2021/12/29 12:54:58;;;;;;;0.22;0.22;;;9.50;99.90;;;;;;5013017;28;20109;-78
2021/12/29 12:57:28;;;;;;;0.63;0.63;;;9.70;99.90;;;;;;5012763;28;20037;-79
2021/12/29 13:00:04;;;;;;;0.30;0.30;;;9.70;99.90;;;;;;5012628;28;20026;-78
2021/12/29 13:02:37;;;;;;;0.17;0.17;;;9.80;99.90;;;;;;4996589;28;20025;-79
2021/12/29 13:05:24;;;;;;;0.10;0.10;;;9.80;99.90;;;;;;5012749;28;20029;-78
2021/12/29 13:08:07;;;;;;;0.10;0.10;;;9.90;99.90;;;;;;5012894;28;20026;-79
2021/12/29 13:10:46;;;;;;;0.10;0.10;;;10.00;99.90;;;;;;5013875;28;20022;-79
2021/12/29 13:13:15;;;;;;;1.25;0.52;;;10.00;99.90;;;;;;5012703;28;20026;-78
2021/12/29 13:15:47;;;;;;;0.10;0.10;;;10.00;99.90;;;;;;5013720;28;20072;-78
2021/12/29 13:18:15;;;;;;;0.20;0.20;;;9.80;99.90;;;;;;5013999;28;20024;-78
2021/12/29 13:20:43;;;;;;;0.20;0.20;;;9.70;99.90;;;;;;5012444;28;20046;-78
2021/12/29 13:23:19;;;;;;;0.10;0.10;;;9.70;99.90;;;;;;5013650;28;20057;-79
2021/12/29 13:25:47;;;;;;;0.47;0.47;;;9.90;99.90;;;;;;5012395;28;20036;-78
2021/12/29 13:28:15;;;;;;;0.10;0.10;;;10.00;99.90;;;;;;5013528;28;20021;-78
2021/12/29 13:30:45;;;;;;;0.13;0.13;;;10.10;99.90;;;;;;5012572;28;20109;-78